Millingport, North Carolina
Current Conditions -  °F | °C
As of 1:55 AM on Monday 24 Nov 2014 (Local Time) from KVUJ Reporting Station
Overcast Overcast  
Wind Chill: 63°   Ceiling: 2000
Heat Index: 63°   Visibility: 10mi
Dew Point: 61°   Wind: 9mph
Humidity: 94%   Direction: 230°SW
Pressure: 29.79"   Gusts: NA
Location:  35.3503°N, 80.2174°W
Report Text: KVUJ 240655Z AUTO 23008KT 10SM BKN020 OVC024 17/16 A2979 RMK AO2 LTG DSNT E T01720163
Loading
Personal Weather Stations






























Interactive Weather Map New forecast layout! Learn more

10-Day Weather Forecast

Advertisements
Track Severe Weather on mobile